Time;durP1;ratioP1;P1;durP2;ratioP2;P2;SDS_P1;SDS_P2;PMS_P1;PMS_P2;Temp;Humidity;BMP_temperature;BMP_pressure;BME280_temperature;BME280_humidity;BME280_pressure;Samples;Min_cycle;Max_cycle;Signal;HPM_P1;HPM_P2
2022/06/20 00:03:43;;;;;;;4.78;1.35;;;;;;;13.85;100.00;101205.00;10354248;28;20067;-60
2022/06/20 00:08:40;;;;;;;6.13;1.77;;;;;;;13.81;100.00;101217.00;10359166;28;20411;-60
2022/06/20 00:13:38;;;;;;;11.52;2.00;;;;;;;13.79;100.00;101219.25;10345025;28;20140;-61
2022/06/20 00:18:35;;;;;;;8.63;1.52;;;;;;;13.77;100.00;101196.78;10350976;28;20713;-61
2022/06/20 00:23:31;;;;;;;9.40;1.45;;;;;;;13.79;100.00;101192.56;10361692;28;20534;-61
2022/06/20 00:28:28;;;;;;;8.10;1.88;;;;;;;13.76;100.00;101225.38;10355760;28;20052;-63
2022/06/20 00:33:24;;;;;;;7.13;1.50;;;;;;;13.77;100.00;101266.28;10349451;28;20052;-62
2022/06/20 00:38:22;;;;;;;6.63;1.40;;;;;;;13.83;100.00;101275.16;10362292;28;20085;-62
2022/06/20 00:43:37;;;;;;;11.18;1.65;;;;;;;13.82;100.00;101268.06;10356088;27;20089;-62
2022/06/20 00:48:52;;;;;;;7.65;1.70;;;;;;;13.90;100.00;101231.50;10351858;28;20135;-63
2022/06/20 00:53:56;;;;;;;8.45;2.20;;;;;;;13.92;100.00;101234.72;10351468;28;20039;-62
2022/06/20 00:58:58;;;;;;;7.13;1.40;;;;;;;13.88;100.00;101203.56;10364799;28;20036;-63
2022/06/20 01:04:00;;;;;;;6.43;1.30;;;;;;;13.83;100.00;101203.69;10360148;28;20089;-62
2022/06/20 01:09:05;;;;;;;8.57;1.23;;;;;;;13.75;100.00;101199.06;10365763;28;20044;-62
2022/06/20 01:14:22;;;;;;;5.18;1.13;;;;;;;13.67;100.00;101190.50;10350917;28;20036;-62
2022/06/20 01:19:38;;;;;;;12.07;1.80;;;;;;;13.70;100.00;101185.50;10346334;28;20457;-62
2022/06/20 01:24:54;;;;;;;6.57;1.60;;;;;;;13.68;100.00;101180.31;10354620;28;20154;-62
2022/06/20 01:29:51;;;;;;;7.85;1.60;;;;;;;13.65;100.00;101187.28;10357732;28;20040;-61
2022/06/20 01:34:48;;;;;;;8.10;2.00;;;;;;;13.60;100.00;101192.94;10359206;27;20615;-61
2022/06/20 01:39:45;;;;;;;12.98;1.88;;;;;;;13.58;100.00;101189.72;10359648;28;20499;-62
2022/06/20 01:44:45;;;;;;;10.13;1.42;;;;;;;13.52;100.00;101182.78;10335024;28;20074;-62
2022/06/20 01:49:45;;;;;;;12.80;1.88;;;;;;;13.46;100.00;101178.59;10345311;28;20148;-62
2022/06/20 01:55:06;;;;;;;7.82;2.15;;;;;;;13.39;100.00;101190.09;10342350;28;20072;-62
2022/06/20 02:00:10;;;;;;;9.45;1.73;;;;;;;13.39;100.00;101187.34;10345714;28;20086;-63
2022/06/20 02:05:11;;;;;;;8.27;1.45;;;;;;;13.42;100.00;101183.13;10351649;28;20618;-61
2022/06/20 02:10:13;;;;;;;7.05;1.50;;;;;;;13.41;100.00;101187.00;10354224;27;20078;-60
2022/06/20 02:15:17;;;;;;;8.77;1.43;;;;;;;13.40;100.00;101179.88;10357727;28;20083;-60
2022/06/20 02:20:19;;;;;;;8.38;2.00;;;;;;;13.32;100.00;101176.03;10359849;27;20135;-61
2022/06/20 02:25:21;;;;;;;5.80;1.45;;;;;;;13.26;100.00;101175.34;10361834;28;20044;-63
2022/06/20 02:30:17;;;;;;;8.40;1.60;;;;;;;13.15;100.00;101185.03;10344527;28;20055;-61
2022/06/20 02:35:17;;;;;;;12.30;2.00;;;;;;;13.08;100.00;101190.22;10340318;28;20045;-63
2022/06/20 02:40:16;;;;;;;8.95;1.80;;;;;;;12.97;100.00;101188.91;10343843;28;20068;-63
2022/06/20 02:45:14;;;;;;;6.53;1.50;;;;;;;12.90;100.00;101185.84;10340905;28;20623;-61
2022/06/20 02:50:13;;;;;;;9.85;1.80;;;;;;;12.82;100.00;101185.53;10333972;28;20140;-61
2022/06/20 02:55:11;;;;;;;7.45;1.88;;;;;;;12.76;100.00;101173.06;10336014;28;20185;-61
2022/06/20 03:00:15;;;;;;;9.75;2.35;;;;;;;12.75;100.00;101166.00;10341778;28;20560;-63
2022/06/20 03:05:12;;;;;;;15.30;2.20;;;;;;;12.73;100.00;101189.41;10351681;28;20450;-63
2022/06/20 03:10:32;;;;;;;8.02;1.90;;;;;;;12.71;100.00;101211.66;10346628;28;20136;-61
2022/06/20 03:15:29;;;;;;;10.52;2.70;;;;;;;12.73;100.00;101194.88;10353809;28;20119;-63
2022/06/20 03:20:27;;;;;;;8.13;1.73;;;;;;;12.74;100.00;101194.56;10352176;28;20051;-63
2022/06/20 03:25:24;;;;;;;15.50;2.63;;;;;;;12.73;100.00;101195.69;10324761;28;20078;-63
2022/06/20 03:30:34;;;;;;;12.25;2.10;;;;;;;12.79;100.00;101196.34;10333948;28;20496;-67
2022/06/20 03:35:33;;;;;;;9.70;1.92;;;;;;;12.90;100.00;101207.81;10333240;28;20047;-67
2022/06/20 03:40:30;;;;;;;8.95;1.50;;;;;;;13.01;100.00;101201.69;10339970;28;20051;-67
2022/06/20 03:45:32;;;;;;;11.68;2.05;;;;;;;13.04;100.00;101206.53;10331257;28;20067;-67
2022/06/20 03:50:35;;;;;;;5.93;1.42;;;;;;;13.08;100.00;101197.66;10348670;28;20703;-66
2022/06/20 03:55:34;;;;;;;10.57;2.30;;;;;;;13.10;100.00;101203.63;10324245;28;20113;-66
2022/06/20 04:01:00;;;;;;;7.57;1.95;;;;;;;13.09;100.00;101197.34;10338738;28;20388;-65
2022/06/20 04:06:06;;;;;;;6.25;2.45;;;;;;;13.11;100.00;101206.06;10323998;28;21957;-65
2022/06/20 04:11:04;;;;;;;14.73;2.65;;;;;;;13.10;100.00;101193.44;10327760;28;20046;-65
2022/06/20 04:16:06;;;;;;;10.18;1.90;;;;;;;13.16;100.00;101186.69;10316207;28;20067;-65
2022/06/20 04:21:25;;;;;;;;;;;;;;;13.23;100.00;101191.69;10312594;28;20737;-65
2022/06/20 04:26:33;;;;;;;11.63;2.03;;;;;;;13.29;100.00;101197.84;10308750;28;19963;-65
2022/06/20 04:31:56;;;;;;;8.68;1.90;;;;;;;13.33;100.00;101207.03;10321125;28;20133;-64
2022/06/20 04:37:00;;;;;;;9.27;2.23;;;;;;;13.35;100.00;101199.28;10330824;28;20040;-67
2022/06/20 04:42:10;;;;;;;8.25;1.80;;;;;;;13.40;100.00;101191.69;10335099;28;20150;-67
2022/06/20 04:47:21;;;;;;;11.00;2.10;;;;;;;13.41;100.00;101187.00;10337473;28;20042;-67
2022/06/20 04:52:22;;;;;;;11.85;2.42;;;;;;;13.40;100.00;101194.44;10317740;28;20076;-67
2022/06/20 04:57:19;;;;;;;13.63;2.03;;;;;;;13.41;100.00;101193.31;10330823;28;20512;-66
2022/06/20 05:02:20;;;;;;;12.82;3.20;;;;;;;13.43;100.00;101187.47;10351634;28;20075;-66
2022/06/20 05:07:38;;;;;;;11.30;2.47;;;;;;;13.41;100.00;101176.84;10345960;28;20080;-66
2022/06/20 05:12:44;;;;;;;10.73;2.13;;;;;;;13.40;100.00;101174.41;10356393;28;20400;-66
2022/06/20 05:17:43;;;;;;;9.27;2.22;;;;;;;13.49;100.00;101172.44;10356835;28;20051;-66
2022/06/20 05:22:45;;;;;;;13.75;1.88;;;;;;;13.57;100.00;101157.88;10363321;27;20101;-66
2022/06/20 05:27:48;;;;;;;12.27;2.35;;;;;;;13.60;100.00;101150.91;10347839;28;20047;-65
2022/06/20 05:32:49;;;;;;;;;;;;;;;13.66;100.00;101139.41;10363117;28;20043;-65
2022/06/20 05:37:52;;;;;;;16.38;2.17;;;;;;;13.68;100.00;101142.66;10358136;28;19920;-66
2022/06/20 05:42:49;;;;;;;9.68;1.77;;;;;;;13.72;100.00;101136.50;10361811;28;20043;-66
2022/06/20 05:47:50;;;;;;;7.85;1.60;;;;;;;13.85;100.00;101124.47;10344120;27;20598;-66
2022/06/20 05:52:50;;;;;;;7.55;2.08;;;;;;;14.00;100.00;101126.69;10328410;28;20048;-66
2022/06/20 05:57:48;;;;;;;8.82;1.42;;;;;;;14.09;100.00;101112.91;10329931;28;20159;-66
2022/06/20 06:03:09;;;;;;;8.45;1.50;;;;;;;14.11;100.00;101116.13;10341734;28;20079;-66
2022/06/20 06:08:47;;;;;;;13.20;1.70;;;;;;;14.12;100.00;101106.72;10359094;28;20097;-66
2022/06/20 06:14:01;;;;;;;8.00;1.17;;;;;;;14.12;100.00;101105.91;10280636;28;20052;-66
2022/06/20 06:19:08;;;;;;;7.97;1.35;;;;;;;14.20;100.00;101108.63;10349352;28;20138;-65
2022/06/20 06:24:09;;;;;;;7.50;1.40;;;;;;;14.22;100.00;101108.28;10343763;28;20075;-65
2022/06/20 06:29:16;;;;;;;9.57;2.30;;;;;;;14.35;100.00;101115.47;10360803;28;20052;-65
2022/06/20 06:34:26;;;;;;;8.82;1.67;;;;;;;14.59;100.00;101108.53;10362057;28;20087;-65
2022/06/20 06:39:43;;;;;;;8.57;1.77;;;;;;;14.59;100.00;101108.53;10345754;28;20163;-65
2022/06/20 06:44:53;;;;;;;13.80;2.17;;;;;;;14.58;100.00;101117.97;10357081;28;20041;-65
2022/06/20 06:49:55;;;;;;;10.85;2.17;;;;;;;14.60;100.00;101121.97;10358265;28;20097;-66
2022/06/20 06:55:17;;;;;;;4.27;1.03;;;;;;;14.51;100.00;101130.25;10356137;28;20036;-65
2022/06/20 07:00:25;;;;;;;9.68;1.85;;;;;;;14.37;100.00;101129.72;10347147;28;20078;-65
2022/06/20 07:05:34;;;;;;;8.65;2.03;;;;;;;14.50;100.00;101128.66;10359128;28;20105;-65
2022/06/20 07:10:45;;;;;;;7.68;1.52;;;;;;;14.65;100.00;101129.22;10351069;27;20641;-65
2022/06/20 07:15:42;;;;;;;8.88;1.40;;;;;;;14.62;100.00;101127.13;10345555;28;20105;-65
2022/06/20 07:20:41;;;;;;;7.90;1.20;;;;;;;14.37;100.00;101124.22;10357649;28;20093;-65
2022/06/20 07:25:44;;;;;;;5.93;1.70;;;;;;;14.43;100.00;101133.84;10351062;28;20047;-65
2022/06/20 07:30:45;;;;;;;7.93;1.15;;;;;;;14.58;100.00;101135.25;10350018;28;20476;-65
2022/06/20 07:35:46;;;;;;;7.57;1.30;;;;;;;14.62;100.00;101124.38;10356469;28;20079;-65
2022/06/20 07:40:45;;;;;;;9.88;1.10;;;;;;;14.73;100.00;101131.09;10352264;27;20105;-65
2022/06/20 07:45:48;;;;;;;8.15;1.33;;;;;;;14.93;100.00;101135.78;10355181;28;20044;-65
2022/06/20 07:51:06;;;;;;;6.20;1.05;;;;;;;15.05;100.00;101161.78;10349280;28;20040;-65
2022/06/20 07:56:17;;;;;;;7.38;1.27;;;;;;;15.30;100.00;101177.25;10348817;28;20094;-65
2022/06/20 08:01:27;;;;;;;9.15;1.42;;;;;;;15.32;100.00;101177.72;10342011;28;20048;-65
2022/06/20 08:06:49;;;;;;;3.67;1.05;;;;;;;15.35;100.00;101168.78;10349910;28;20052;-66
2022/06/20 08:12:04;;;;;;;6.00;1.10;;;;;;;15.45;100.00;101161.22;10360573;28;20611;-65
2022/06/20 08:17:08;;;;;;;5.75;1.60;;;;;;;15.49;100.00;101151.16;10357439;28;20448;-65
2022/06/20 08:22:18;;;;;;;5.95;1.20;;;;;;;15.64;100.00;101147.75;10373367;28;20077;-65
2022/06/20 08:27:30;;;;;;;6.53;1.00;;;;;;;15.56;100.00;101151.38;10361540;28;20039;-65
2022/06/20 08:32:39;;;;;;;4.88;1.02;;;;;;;15.56;100.00;101157.69;10369854;28;20047;-65
2022/06/20 08:37:44;;;;;;;5.43;0.98;;;;;;;15.69;100.00;101139.25;10362620;28;20140;-65
2022/06/20 08:43:08;;;;;;;5.40;1.10;;;;;;;15.96;100.00;101137.00;10364008;27;20067;-65
2022/06/20 08:48:41;;;;;;;5.38;0.95;;;;;;;15.99;100.00;101152.88;10364113;28;20048;-65
2022/06/20 08:53:54;;;;;;;4.43;1.05;;;;;;;15.72;100.00;101149.63;10359353;28;20457;-66
2022/06/20 08:59:12;;;;;;;5.85;1.20;;;;;;;15.67;100.00;101146.25;10369111;28;20071;-66
2022/06/20 09:04:49;;;;;;;6.22;1.50;;;;;;;15.59;100.00;101150.69;10358119;28;20048;-65
2022/06/20 09:09:51;;;;;;;6.78;1.90;;;;;;;15.68;100.00;101165.19;10350279;28;20044;-65
2022/06/20 09:15:25;;;;;;;7.97;1.73;;;;;;;15.75;100.00;101151.66;10366527;28;20400;-65
2022/06/20 09:21:13;;;;;;;5.68;1.63;;;;;;;16.05;100.00;101162.50;10299803;28;20048;-66
2022/06/20 09:26:30;;;;;;;6.22;1.77;;;;;;;16.42;100.00;101137.66;10350853;27;20068;-65
2022/06/20 09:32:00;;;;;;;8.80;1.88;;;;;;;16.66;100.00;101141.53;10356985;28;20068;-65
2022/06/20 09:37:35;;;;;;;8.63;2.35;;;;;;;16.76;100.00;101130.00;10363926;28;20059;-66
2022/06/20 09:42:44;;;;;;;5.68;1.80;;;;;;;16.95;100.00;101127.44;10353764;28;20083;-65
2022/06/20 09:47:55;;;;;;;8.52;2.20;;;;;;;16.81;100.00;101111.25;10366165;28;20040;-65
2022/06/20 09:53:08;;;;;;;6.28;1.80;;;;;;;16.62;100.00;101120.16;10361974;28;20039;-65
2022/06/20 09:58:45;;;;;;;8.70;2.28;;;;;;;16.79;100.00;101130.13;10361724;28;20092;-66
2022/06/20 10:04:08;;;;;;;7.47;1.60;;;;;;;17.36;96.13;101114.34;10346051;28;20059;-65
2022/06/20 10:09:11;;;;;;;6.97;1.40;;;;;;;17.56;95.58;101097.84;10365614;28;20052;-65
2022/06/20 10:14:48;;;;;;;11.90;2.00;;;;;;;17.99;92.42;101112.78;10357975;28;20048;-66
2022/06/20 10:19:48;;;;;;;5.72;1.52;;;;;;;19.32;87.58;101108.09;10350673;28;20071;-65
2022/06/20 10:25:38;;;;;;;5.72;1.30;;;;;;;19.32;73.09;101111.66;10353831;28;20039;-65
2022/06/20 10:30:43;;;;;;;3.88;1.33;;;;;;;18.35;74.58;101102.53;10342089;28;20059;-65
2022/06/20 10:35:50;;;;;;;7.30;1.65;;;;;;;18.84;68.51;101118.63;10360528;28;20130;-65
2022/06/20 10:41:05;;;;;;;5.60;1.63;;;;;;;21.03;62.81;101125.78;10342343;28;20131;-65
2022/06/20 10:46:20;;;;;;;6.88;1.58;;;;;;;22.56;59.17;101111.59;10351730;28;20063;-66
2022/06/20 10:51:39;;;;;;;6.43;1.63;;;;;;;22.66;52.98;101110.03;10354822;28;20056;-66
2022/06/20 10:56:51;;;;;;;6.55;1.50;;;;;;;22.21;48.88;101137.22;10365197;28;20047;-66
2022/06/20 11:01:54;;;;;;;;;;;;;;;22.75;48.13;101126.41;10372053;27;20051;-66
2022/06/20 11:07:20;;;;;;;4.17;1.00;;;;;;;21.97;47.66;101128.28;10360951;28;20015;-65
2022/06/20 11:12:33;;;;;;;6.22;1.73;;;;;;;20.72;50.61;101140.84;10365769;28;20036;-65
2022/06/20 11:17:48;;;;;;;6.65;1.73;;;;;;;19.84;54.61;101137.19;10353731;28;20131;-65
2022/06/20 11:22:51;;;;;;;8.68;2.08;;;;;;;21.58;56.97;101136.28;10354479;28;20091;-65
2022/06/20 11:28:15;;;;;;;5.65;1.60;;;;;;;22.73;50.08;101140.72;10353552;27;20040;-66
2022/06/20 11:34:01;;;;;;;4.60;1.48;;;;;;;22.67;46.64;101140.31;10348787;28;20089;-65
2022/06/20 11:39:25;;;;;;;5.97;1.50;;;;;;;23.25;43.80;101132.94;10312978;28;20414;-65
2022/06/20 11:44:56;;;;;;;;;;;;;;;23.34;42.45;101131.78;10361884;28;20071;-65
2022/06/20 11:50:14;;;;;;;3.72;1.05;;;;;;;22.59;39.43;101135.09;10254784;28;19981;-65
2022/06/20 11:55:22;;;;;;;4.50;1.10;;;;;;;21.30;42.69;101136.78;10354626;28;20068;-66
2022/06/20 12:00:25;;;;;;;4.85;1.17;;;;;;;19.97;46.73;101159.97;10339098;28;20052;-65
2022/06/20 12:05:27;;;;;;;3.88;1.00;;;;;;;20.26;48.04;101147.34;10353138;28;20078;-65
2022/06/20 12:10:39;;;;;;;5.47;0.90;;;;;;;20.83;44.31;101113.22;10340869;28;20044;-65
2022/06/20 12:15:45;;;;;;;4.60;0.95;;;;;;;21.09;42.81;101134.56;10344901;28;20504;-65
2022/06/20 12:26:09;;;;;;;5.72;0.98;;;;;;;19.51;52.02;101141.31;10346458;28;20460;-65
2022/06/20 12:31:08;;;;;;;4.95;0.90;;;;;;;19.94;51.79;101130.19;10354892;28;20488;-65
2022/06/20 12:36:15;;;;;;;4.90;0.85;;;;;;;19.53;53.44;101141.75;10365040;28;20044;-65
2022/06/20 12:41:19;;;;;;;4.70;0.82;;;;;;;18.79;60.40;101138.31;10345927;28;20083;-65
2022/06/20 12:46:31;;;;;;;4.22;1.08;;;;;;;19.18;57.83;101139.13;10349074;28;20076;-65
2022/06/20 12:52:06;;;;;;;6.70;0.75;;;;;;;19.23;54.51;101133.28;10349971;28;20040;-65
2022/06/20 12:57:11;;;;;;;;;;;;;;;19.21;50.42;101148.66;10355602;28;20041;-65
2022/06/20 13:02:33;;;;;;;1.38;0.30;;;;;;;19.19;48.91;101156.53;10356914;28;20341;-65
2022/06/20 13:07:38;;;;;;;1.83;0.60;;;;;;;19.34;50.54;101139.03;10347859;28;20131;-65
2022/06/20 13:12:51;;;;;;;5.10;1.20;;;;;;;19.57;50.88;101132.72;10358100;28;20507;-65
2022/06/20 13:18:19;;;;;;;2.58;0.60;;;;;;;19.95;49.92;101151.22;10351456;28;20113;-65
2022/06/20 13:23:51;;;;;;;1.15;0.50;;;;;;;19.66;50.33;101152.69;10358322;28;20090;-66
2022/06/20 13:29:25;;;;;;;4.00;0.75;;;;;;;19.70;53.12;101131.38;10357199;28;20501;-65
2022/06/20 13:34:25;;;;;;;;;;;;;;;19.10;61.16;101146.50;10349473;28;20564;-65
2022/06/20 13:39:47;;;;;;;6.38;0.98;;;;;;;18.76;58.51;101166.72;10361549;28;20435;-65
2022/06/20 13:44:59;;;;;;;5.13;0.90;;;;;;;18.35;52.08;101163.44;10359358;28;20039;-65
2022/06/20 13:50:20;;;;;;;3.58;0.50;;;;;;;18.20;53.17;101165.88;10364667;28;20070;-65
2022/06/20 13:55:25;;;;;;;4.45;1.00;;;;;;;18.70;56.36;101153.16;10352801;28;20048;-65
2022/06/20 14:00:28;;;;;;;4.28;1.20;;;;;;;18.77;60.69;101163.59;10341992;28;20051;-65
2022/06/20 14:05:47;;;;;;;5.00;1.00;;;;;;;18.08;65.17;101185.34;10364843;28;20488;-65
2022/06/20 14:10:56;;;;;;;4.95;1.42;;;;;;;18.03;71.73;101180.06;10355511;28;20044;-65
2022/06/20 14:16:18;;;;;;;6.53;1.45;;;;;;;18.39;70.17;101192.00;10364365;28;20568;-65
2022/06/20 14:21:16;;;;;;;2.58;0.82;;;;;;;19.19;61.80;101171.19;10348716;28;20067;-65
2022/06/20 14:26:34;;;;;;;2.40;0.68;;;;;;;20.00;61.12;101172.28;10355037;28;20063;-65
2022/06/20 14:31:39;;;;;;;5.13;1.13;;;;;;;19.39;58.81;101183.09;10350300;27;20073;-65
2022/06/20 14:37:08;;;;;;;2.35;1.20;;;;;;;19.59;59.04;101174.72;10359226;28;20044;-65
2022/06/20 14:42:10;;;;;;;3.70;0.90;;;;;;;19.29;61.30;101186.47;10359681;28;20134;-65
2022/06/20 14:47:27;;;;;;;4.70;1.20;;;;;;;18.71;59.72;101176.13;10359451;28;20035;-66
2022/06/20 14:52:42;;;;;;;3.53;1.15;;;;;;;19.27;57.99;101169.38;10368335;28;20848;-65
2022/06/20 14:58:14;;;;;;;2.67;0.73;;;;;;;19.68;55.85;101166.97;10348385;28;20143;-65
2022/06/20 15:03:38;;;;;;;6.07;1.60;;;;;;;19.79;57.80;101167.19;10360656;28;20067;-65
2022/06/20 15:08:48;;;;;;;2.92;0.75;;;;;;;19.85;57.20;101172.06;10336029;28;20037;-64
2022/06/20 15:14:04;;;;;;;10.30;1.33;;;;;;;19.94;56.99;101158.75;10326026;28;20196;-64
2022/06/20 15:19:28;;;;;;;3.38;0.90;;;;;;;19.37;57.52;101179.06;10328933;27;20498;-64
2022/06/20 15:24:33;;;;;;;3.58;1.27;;;;;;;19.34;58.36;101172.28;10322098;28;20451;-64
2022/06/20 15:30:00;;;;;;;4.50;0.98;;;;;;;19.45;65.19;101162.22;10327501;28;20154;-65
2022/06/20 15:35:27;;;;;;;5.57;1.13;;;;;;;19.01;63.55;101168.09;10326967;28;20532;-66
2022/06/20 15:40:28;;;;;;;6.50;1.70;;;;;;;19.03;63.49;101182.38;10293058;28;20683;-65
2022/06/20 15:45:30;;;;;;;4.00;1.10;;;;;;;18.86;68.58;101197.44;10317074;28;20074;-66
2022/06/20 15:50:35;;;;;;;5.00;1.10;;;;;;;19.12;64.98;101188.50;10290456;28;20105;-67
2022/06/20 15:55:48;;;;;;;6.28;1.35;;;;;;;19.39;68.55;101216.34;10314533;28;20048;-67
2022/06/20 16:01:23;;;;;;;2.72;0.82;;;;;;;18.64;78.48;101220.28;10319949;28;20134;-67
2022/06/20 16:06:24;;;;;;;3.80;1.23;;;;;;;18.13;96.46;101201.66;10315899;28;20213;-66
2022/06/20 16:11:44;;;;;;;2.80;0.90;;;;;;;17.54;99.01;101202.47;10323960;27;20118;-66
2022/06/20 16:16:47;;;;;;;6.28;1.45;;;;;;;17.24;100.00;101216.63;10327061;28;20037;-66
2022/06/20 16:21:45;;;;;;;5.25;1.10;;;;;;;16.91;100.00;101208.56;10318157;28;20113;-66
2022/06/20 16:26:48;;;;;;;3.78;1.20;;;;;;;16.77;100.00;101225.47;10331854;28;20079;-67
2022/06/20 16:32:00;;;;;;;4.10;1.20;;;;;;;16.45;100.00;101247.34;10324871;28;20040;-66
2022/06/20 16:37:03;;;;;;;3.70;1.40;;;;;;;16.02;100.00;101250.66;10348998;28;20056;-66
2022/06/20 16:42:09;;;;;;;3.85;1.50;;;;;;;15.42;100.00;101261.91;10352099;28;20058;-66
2022/06/20 16:47:23;;;;;;;7.72;2.25;;;;;;;14.98;100.00;101275.22;10344198;28;20099;-66
2022/06/20 16:52:35;;;;;;;5.25;2.10;;;;;;;14.80;100.00;101257.19;10339168;28;20047;-66
2022/06/20 16:57:46;;;;;;;7.13;2.42;;;;;;;14.98;100.00;101246.88;10336922;28;20083;-65
2022/06/20 17:02:58;;;;;;;6.13;1.95;;;;;;;15.03;100.00;101249.41;10337417;28;20123;-66
2022/06/20 17:08:13;;;;;;;9.73;4.23;;;;;;;14.97;100.00;101251.59;10346785;27;20143;-65
2022/06/20 17:13:29;;;;;;;10.93;6.22;;;;;;;15.07;100.00;101273.19;10318027;28;20177;-65
2022/06/20 17:18:53;;;;;;;5.93;2.17;;;;;;;14.90;100.00;101279.63;10334692;28;20551;-65
2022/06/20 17:24:22;;;;;;;4.32;2.15;;;;;;;14.40;100.00;101266.59;10337436;28;20044;-64
2022/06/20 17:29:40;;;;;;;6.18;1.88;;;;;;;14.42;100.00;101253.31;10256887;28;20079;-65
2022/06/20 17:35:15;;;;;;;4.20;1.45;;;;;;;14.31;100.00;101265.81;10342465;28;20040;-64
2022/06/20 17:40:43;;;;;;;9.43;3.97;;;;;;;14.27;100.00;101270.34;10327610;28;20124;-64
2022/06/20 17:46:09;;;;;;;7.38;3.25;;;;;;;14.34;100.00;101273.41;10342660;28;20142;-64
2022/06/20 17:51:35;;;;;;;4.40;2.28;;;;;;;14.52;100.00;101271.38;10319270;28;20374;-64
2022/06/20 17:56:43;;;;;;;7.43;2.40;;;;;;;16.76;100.00;101257.03;10320159;28;20101;-64
2022/06/20 18:01:56;;;;;;;9.57;3.72;;;;;;;17.02;100.00;101254.69;10322423;28;20075;-65
2022/06/20 18:06:56;;;;;;;5.57;2.50;;;;;;;16.05;100.00;101267.31;10329636;28;20067;-65
2022/06/20 18:12:07;;;;;;;5.72;2.15;;;;;;;15.65;100.00;101270.63;10325895;28;20044;-66
2022/06/20 18:17:31;;;;;;;5.78;1.90;;;;;;;15.31;100.00;101283.53;10318873;28;20047;-65
2022/06/20 18:22:37;;;;;;;5.65;1.98;;;;;;;14.93;100.00;101278.97;10340826;28;20067;-65
2022/06/20 18:27:57;;;;;;;8.82;2.70;;;;;;;14.73;100.00;101274.22;10342510;28;20064;-65
2022/06/20 18:32:57;;;;;;;8.55;3.17;;;;;;;14.60;100.00;101270.59;10337562;28;20048;-65
2022/06/20 18:38:09;;;;;;;9.98;2.28;;;;;;;14.49;100.00;101280.31;10332521;28;20474;-65
2022/06/20 18:43:10;;;;;;;5.07;2.50;;;;;;;14.69;100.00;101278.78;10326087;28;20454;-66
2022/06/20 18:48:36;;;;;;;8.65;3.13;;;;;;;14.86;100.00;101273.19;10334697;28;20621;-66
2022/06/20 18:53:56;;;;;;;10.35;3.17;;;;;;;14.78;100.00;101276.78;10333734;28;20507;-66
2022/06/20 18:59:26;;;;;;;9.30;2.45;;;;;;;14.73;100.00;101282.47;10331220;28;20098;-66
2022/06/20 19:04:51;;;;;;;8.38;3.30;;;;;;;14.66;100.00;101284.94;10323463;28;20151;-66
2022/06/20 19:09:59;;;;;;;10.00;3.75;;;;;;;14.64;100.00;101282.50;10333653;28;20564;-66
2022/06/20 19:15:02;;;;;;;8.30;2.80;;;;;;;14.68;100.00;101282.66;10327335;28;20130;-65
2022/06/20 19:20:30;;;;;;;6.47;3.15;;;;;;;14.58;100.00;101283.84;10341453;28;20051;-66
2022/06/20 19:25:45;;;;;;;7.85;2.72;;;;;;;14.43;100.00;101290.69;10342068;27;20055;-65
2022/06/20 19:30:44;;;;;;;8.85;3.38;;;;;;;14.52;100.00;101296.94;10348715;27;20071;-65
2022/06/20 19:35:45;;;;;;;9.52;2.75;;;;;;;14.42;100.00;101300.06;10337418;28;20068;-64
2022/06/20 19:41:07;;;;;;;11.02;2.67;;;;;;;14.47;100.00;101308.16;10347463;28;20040;-66
2022/06/20 19:46:09;;;;;;;11.23;3.75;;;;;;;14.38;100.00;101303.81;10328836;27;20926;-66
2022/06/20 19:51:26;;;;;;;12.00;4.60;;;;;;;14.33;100.00;101310.31;10315863;28;20131;-66
2022/06/20 19:56:22;;;;;;;8.50;2.88;;;;;;;14.19;100.00;101312.47;10329372;28;20122;-63
2022/06/20 20:01:31;;;;;;;6.50;2.47;;;;;;;14.02;100.00;101316.88;10318715;28;20155;-63
2022/06/20 20:06:27;;;;;;;7.60;3.17;;;;;;;14.08;100.00;101307.28;10337478;28;21347;-63
2022/06/20 20:11:31;;;;;;;8.98;3.22;;;;;;;14.08;100.00;101315.53;10345357;27;20067;-70
2022/06/20 20:16:37;;;;;;;7.20;2.78;;;;;;;14.06;100.00;101323.34;10340708;28;20490;-64
2022/06/20 20:21:42;;;;;;;9.80;3.58;;;;;;;14.06;100.00;101319.75;10350412;27;20056;-63
2022/06/20 20:26:48;;;;;;;7.90;2.88;;;;;;;13.91;100.00;101326.59;10323210;28;20152;-64
2022/06/20 20:31:49;;;;;;;8.93;2.75;;;;;;;13.89;100.00;101328.84;10327701;28;20333;-63
2022/06/20 20:37:02;;;;;;;10.52;2.70;;;;;;;13.93;100.00;101332.56;10323113;28;20126;-63
2022/06/20 20:42:10;;;;;;;9.15;2.53;;;;;;;13.83;100.00;101330.13;10331965;28;20090;-63
2022/06/20 20:47:24;;;;;;;5.05;1.92;;;;;;;13.74;100.00;101326.59;10346706;28;20127;-61
2022/06/20 20:52:30;;;;;;;7.53;2.75;;;;;;;13.72;100.00;101334.38;10332214;28;20048;-64
2022/06/20 20:57:32;;;;;;;6.93;2.10;;;;;;;13.67;100.00;101325.16;10330249;28;20085;-64
2022/06/20 21:02:36;;;;;;;13.30;3.25;;;;;;;13.65;100.00;101334.84;10331054;28;20048;-63
2022/06/20 21:07:38;;;;;;;10.32;2.63;;;;;;;13.62;100.00;101325.31;10345339;28;20047;-62
2022/06/20 21:12:45;;;;;;;9.43;2.50;;;;;;;13.61;100.00;101334.69;10349257;28;20044;-63
2022/06/20 21:17:53;;;;;;;8.15;1.60;;;;;;;13.59;100.00;101336.94;10349184;28;20413;-63
2022/06/20 21:22:51;;;;;;;9.30;2.40;;;;;;;13.57;100.00;101328.22;10358035;28;20503;-62
2022/06/20 21:27:48;;;;;;;6.65;1.90;;;;;;;13.49;100.00;101341.97;10354140;28;20037;-62
2022/06/20 21:32:46;;;;;;;11.00;2.35;;;;;;;13.46;100.00;101343.41;10346391;28;20064;-62
2022/06/20 21:37:44;;;;;;;10.73;2.63;;;;;;;13.40;100.00;101344.69;10361534;27;20048;-62
2022/06/20 21:42:49;;;;;;;7.35;2.22;;;;;;;13.39;100.00;101343.06;10361013;28;20522;-61
2022/06/20 21:48:14;;;;;;;7.45;2.42;;;;;;;13.37;100.00;101351.63;10354143;28;20618;-62
2022/06/20 21:53:41;;;;;;;8.13;1.80;;;;;;;13.28;100.00;101352.75;10359617;28;20070;-62
2022/06/20 21:58:47;;;;;;;11.73;2.70;;;;;;;13.29;100.00;101359.84;10332044;28;20032;-62
2022/06/20 22:03:44;;;;;;;13.82;2.88;;;;;;;13.27;100.00;101357.38;10355223;28;20098;-61
2022/06/20 22:08:44;;;;;;;5.07;1.75;;;;;;;13.23;100.00;101364.69;10357950;28;20040;-61
2022/06/20 22:13:46;;;;;;;7.15;2.60;;;;;;;13.25;100.00;101360.47;10343654;28;20447;-61
2022/06/20 22:19:18;;;;;;;7.15;2.20;;;;;;;13.19;100.00;101367.25;10345369;28;20040;-60
2022/06/20 22:24:23;;;;;;;9.15;1.83;;;;;;;13.12;100.00;101371.59;10357355;28;20114;-60
2022/06/20 22:29:40;;;;;;;7.35;2.05;;;;;;;13.09;100.00;101367.56;10361841;28;20072;-61
2022/06/20 22:34:37;;;;;;;10.95;2.38;;;;;;;13.04;100.00;101374.00;10352962;28;20052;-62
2022/06/20 22:39:37;;;;;;;12.88;2.85;;;;;;;13.06;100.00;101373.66;10355893;28;20036;-63
2022/06/20 22:44:34;;;;;;;8.13;2.10;;;;;;;12.99;100.00;101367.81;10351883;28;20044;-63
2022/06/20 22:49:32;;;;;;;16.63;3.60;;;;;;;13.07;100.00;101369.81;10345293;28;20076;-63
2022/06/20 22:54:33;;;;;;;10.55;3.35;;;;;;;12.99;100.00;101378.81;10348623;28;20637;-62
2022/06/20 22:59:39;;;;;;;13.77;3.83;;;;;;;12.99;100.00;101381.53;10350161;28;20076;-62
2022/06/20 23:04:42;;;;;;;13.45;3.85;;;;;;;12.91;100.00;101382.34;10354200;28;20507;-60
2022/06/20 23:09:39;;;;;;;13.07;3.53;;;;;;;12.89;100.00;101384.59;10362270;28;20071;-61
2022/06/20 23:14:35;;;;;;;10.43;2.70;;;;;;;12.87;100.00;101381.34;10355100;28;20048;-61
2022/06/20 23:19:36;;;;;;;8.85;3.00;;;;;;;12.87;100.00;101386.84;10360005;28;20419;-61
2022/06/20 23:24:33;;;;;;;10.80;2.78;;;;;;;12.89;100.00;101395.56;10344840;28;20040;-63
2022/06/20 23:29:29;;;;;;;9.10;2.58;;;;;;;12.91;100.00;101404.31;10338848;28;20040;-63
2022/06/20 23:34:35;;;;;;;7.72;2.13;;;;;;;12.97;100.00;101408.50;10363478;28;20097;-61
2022/06/20 23:39:32;;;;;;;10.65;3.63;;;;;;;12.95;100.00;101399.78;10356015;28;20051;-61